Terminal Aerodrome Forecast
Issued by NWS

Home | Current Version | Previous Version | Text Only | Print | Product List | Glossary On
Versions: 1 2 3 4 5 6 7 8 9 10 11 12 13 14 15 16 17 18 19
331
FTUS43 KLSX 101724
TAFCPS
TAF
KCPS 101724Z 1018/1118 28006KT P6SM OVC050
     FM102000 26005KT 2SM -SN OVC025
      TEMPO 1020/1024 1SM -SN OVC010
     FM110100 10004KT 5SM -SN OVC010
     FM110600 08005KT P6SM OVC015
     FM111300 03006KT P6SM BKN035=

USA.gov is the U.S. government's official web portal to all federal, state and local government web resources and services.